Terminal Aerodrome Forecast
Issued by NWS Wilmington, OH

Current Version | Previous Version | Graphics & Text | Print | Product List | Glossary On
Versions: 1 2 3 4 5 6 7 8 9 10 11 12 13 14 15 16 17 18 19 20 21 22 23 24 25 26 27 28 29 30 31 32 33 34 35 36
000
FTUS41 KILN 302300
TAFCVG
TAF
KCVG 302340Z 0100/0206 20005KT P6SM VCTS SCT035CB BKN060
     FM010200 25004KT P6SM FEW040 SCT100
     FM010900 28004KT 2SM BR FEW005
      TEMPO 0109/0113 1/2SM FG VV003
     FM011300 29005KT P6SM SCT008
      TEMPO 0113/0116 BKN010
     FM011600 31006KT P6SM SCT020
     FM020000 26003KT P6SM BKN080=

USA.gov is the U.S. government's official web portal to all federal, state and local government web resources and services.